Crete, North Dakota
Current Conditions -  °F | °C
As of 12:15 AM on Wednesday 26 Nov 2014 (Local Time) from KGWR Reporting Station
Overcast Overcast  
Wind Chill:   Ceiling: 200
Heat Index: 25°   Visibility: 1.5mi
Dew Point: 23°   Wind: 25mph
Humidity: 93%   Direction: 20°NNE
Pressure: 30"   Gusts: 29mph
Location:  46.2395°N, 97.8821°W
Report Text: KGWR 260615Z AUTO 02022G25KT 1 1/2SM OVC002 M04/M05 A3000 RMK A01 P000
Loading
Personal Weather Stations






























Interactive Weather Map New forecast layout! Learn more

10-Day Weather Forecast

Advertisements
Track Severe Weather on mobile